Terminal Aerodrome Forecast
Issued by NWS Amarillo, TX

Home | Current Version | Previous Version | Text Only | Print | Product List | Glossary On
Versions: 1 2 3 4 5 6 7 8 9 10 11 12 13
240
FTUS44 KAMA 192320
TAFDHT
TAF
KDHT 192320Z 2000/2024 17015G28KT P6SM SCT250
     FM200200 15016KT P6SM BKN250
     FM201300 15015G25KT P6SM VCSH BKN040
     FM201600 15015G25KT 3SM SHRA SCT007 OVC010=

USA.gov is the U.S. government's official web portal to all federal, state and local government web resources and services.